sensor_id;sensor_type;location;lat;lon;timestamp;P1;durP1;ratioP1;P2;durP2;ratioP2
7881;SDS011;3986;41.884;23.466;2022-11-23T07:35:19;88.83;;;70.30;;
7881;SDS011;3986;41.884;23.466;2022-11-23T07:37:46;84.13;;;75.20;;
7881;SDS011;3986;41.884;23.466;2022-11-23T07:40:13;111.83;;;100.50;;
7881;SDS011;3986;41.884;23.466;2022-11-23T07:42:40;107.30;;;85.83;;
7881;SDS011;3986;41.884;23.466;2022-11-23T07:45:07;86.40;;;77.50;;
7881;SDS011;3986;41.884;23.466;2022-11-23T07:47:34;97.17;;;87.13;;
7881;SDS011;3986;41.884;23.466;2022-11-23T07:50:01;95.80;;;85.83;;
7881;SDS011;3986;41.884;23.466;2022-11-23T07:52:29;93.40;;;83.90;;
7881;SDS011;3986;41.884;23.466;2022-11-23T07:54:56;100.23;;;89.73;;
7881;SDS011;3986;41.884;23.466;2022-11-23T07:57:24;96.33;;;86.50;;
7881;SDS011;3986;41.884;23.466;2022-11-23T07:59:51;104.67;;;93.90;;
7881;SDS011;3986;41.884;23.466;2022-11-23T08:02:17;104.43;;;93.37;;
7881;SDS011;3986;41.884;23.466;2022-11-23T08:04:45;106.63;;;95.27;;
7881;SDS011;3986;41.884;23.466;2022-11-23T08:07:12;124.47;;;111.37;;
7881;SDS011;3986;41.884;23.466;2022-11-23T08:09:40;113.60;;;102.03;;
7881;SDS011;3986;41.884;23.466;2022-11-23T08:12:07;81.53;;;72.90;;
7881;SDS011;3986;41.884;23.466;2022-11-23T08:14:33;64.53;;;57.93;;
7881;SDS011;3986;41.884;23.466;2022-11-23T08:17:00;55.13;;;49.50;;
7881;SDS011;3986;41.884;23.466;2022-11-23T08:19:27;52.00;;;46.87;;
7881;SDS011;3986;41.884;23.466;2022-11-23T08:21:54;61.10;;;54.73;;
7881;SDS011;3986;41.884;23.466;2022-11-23T08:24:20;73.27;;;65.87;;
7881;SDS011;3986;41.884;23.466;2022-11-23T08:26:49;93.10;;;84.03;;
7881;SDS011;3986;41.884;23.466;2022-11-23T08:29:15;61.53;;;55.20;;
7881;SDS011;3986;41.884;23.466;2022-11-23T08:31:42;60.47;;;54.20;;
7881;SDS011;3986;41.884;23.466;2022-11-23T08:34:09;66.17;;;59.70;;
7881;SDS011;3986;41.884;23.466;2022-11-23T08:36:36;85.60;;;77.33;;
7881;SDS011;3986;41.884;23.466;2022-11-23T08:39:03;67.33;;;60.97;;
7881;SDS011;3986;41.884;23.466;2022-11-23T08:41:29;60.70;;;54.97;;
7881;SDS011;3986;41.884;23.466;2022-11-23T08:43:58;56.37;;;51.03;;
7881;SDS011;3986;41.884;23.466;2022-11-23T08:46:24;59.23;;;53.60;;
7881;SDS011;3986;41.884;23.466;2022-11-23T08:48:51;63.47;;;57.23;;
7881;SDS011;3986;41.884;23.466;2022-11-23T08:51:18;64.40;;;58.50;;
7881;SDS011;3986;41.884;23.466;2022-11-23T08:53:47;68.13;;;61.93;;
7881;SDS011;3986;41.884;23.466;2022-11-23T08:56:14;56.55;;;51.30;;
7881;SDS011;3986;41.884;23.466;2022-11-23T08:58:40;77.33;;;70.33;;
7881;SDS011;3986;41.884;23.466;2022-11-23T09:01:09;84.07;;;76.73;;
7881;SDS011;3986;41.884;23.466;2022-11-23T09:03:37;76.53;;;69.83;;
7881;SDS011;3986;41.884;23.466;2022-11-23T09:06:04;69.57;;;63.53;;
7881;SDS011;3986;41.884;23.466;2022-11-23T09:08:31;67.03;;;61.23;;
7881;SDS011;3986;41.884;23.466;2022-11-23T09:10:59;70.97;;;64.73;;
7881;SDS011;3986;41.884;23.466;2022-11-23T09:13:26;65.97;;;59.87;;
7881;SDS011;3986;41.884;23.466;2022-11-23T09:15:55;60.73;;;55.13;;
7881;SDS011;3986;41.884;23.466;2022-11-23T09:18:24;51.27;;;46.37;;
7881;SDS011;3986;41.884;23.466;2022-11-23T09:20:52;36.30;;;33.00;;
7881;SDS011;3986;41.884;23.466;2022-11-23T09:23:18;34.67;;;31.60;;
7881;SDS011;3986;41.884;23.466;2022-11-23T09:25:45;33.05;;;30.17;;
7881;SDS011;3986;41.884;23.466;2022-11-23T09:28:14;30.25;;;27.85;;
7881;SDS011;3986;41.884;23.466;2022-11-23T09:30:41;27.73;;;25.48;;
7881;SDS011;3986;41.884;23.466;2022-11-23T09:33:08;33.28;;;30.77;;
7881;SDS011;3986;41.884;23.466;2022-11-23T09:35:36;42.53;;;39.53;;
7881;SDS011;3986;41.884;23.466;2022-11-23T09:38:02;32.65;;;30.25;;
7881;SDS011;3986;41.884;23.466;2022-11-23T09:40:30;29.25;;;27.15;;
7881;SDS011;3986;41.884;23.466;2022-11-23T09:43:03;39.65;;;36.70;;
7881;SDS011;3986;41.884;23.466;2022-11-23T09:45:39;43.83;;;40.50;;
7881;SDS011;3986;41.884;23.466;2022-11-23T09:48:24;48.70;;;45.05;;
7881;SDS011;3986;41.884;23.466;2022-11-23T09:51:03;47.50;;;44.05;;
7881;SDS011;3986;41.884;23.466;2022-11-23T09:53:34;23.73;;;21.98;;
7881;SDS011;3986;41.884;23.466;2022-11-23T09:56:07;20.80;;;19.27;;
7881;SDS011;3986;41.884;23.466;2022-11-23T09:58:43;18.00;;;16.70;;
7881;SDS011;3986;41.884;23.466;2022-11-23T10:01:11;21.38;;;19.77;;
7881;SDS011;3986;41.884;23.466;2022-11-23T10:03:40;10.00;;;9.23;;
7881;SDS011;3986;41.884;23.466;2022-11-23T10:06:13;14.02;;;13.02;;
7881;SDS011;3986;41.884;23.466;2022-11-23T10:08:45;19.90;;;18.48;;
7881;SDS011;3986;41.884;23.466;2022-11-23T10:11:33;6.40;;;5.90;;
7881;SDS011;3986;41.884;23.466;2022-11-23T10:14:12;10.48;;;9.57;;
7881;SDS011;3986;41.884;23.466;2022-11-23T10:16:55;16.58;;;15.25;;
7881;SDS011;3986;41.884;23.466;2022-11-23T10:19:30;23.75;;;21.85;;
7881;SDS011;3986;41.884;23.466;2022-11-23T10:22:15;25.67;;;23.58;;
7881;SDS011;3986;41.884;23.466;2022-11-23T10:24:48;22.50;;;20.70;;
7881;SDS011;3986;41.884;23.466;2022-11-23T10:27:18;24.38;;;22.48;;
7881;SDS011;3986;41.884;23.466;2022-11-23T10:29:46;42.67;;;39.13;;
7881;SDS011;3986;41.884;23.466;2022-11-23T10:32:17;31.73;;;29.13;;
7881;SDS011;3986;41.884;23.466;2022-11-23T10:34:55;20.58;;;18.88;;
7881;SDS011;3986;41.884;23.466;2022-11-23T10:37:27;25.60;;;23.40;;
7881;SDS011;3986;41.884;23.466;2022-11-23T10:39:54;18.35;;;16.85;;
7881;SDS011;3986;41.884;23.466;2022-11-23T10:42:22;15.25;;;13.95;;
7881;SDS011;3986;41.884;23.466;2022-11-23T10:44:54;22.38;;;20.48;;
7881;SDS011;3986;41.884;23.466;2022-11-23T10:47:32;26.45;;;24.25;;
7881;SDS011;3986;41.884;23.466;2022-11-23T10:50:00;26.25;;;23.92;;
7881;SDS011;3986;41.884;23.466;2022-11-23T10:52:29;18.77;;;17.27;;
7881;SDS011;3986;41.884;23.466;2022-11-23T10:54:57;30.88;;;28.17;;
7881;SDS011;3986;41.884;23.466;2022-11-23T10:57:29;46.42;;;42.33;;
7881;SDS011;3986;41.884;23.466;2022-11-23T10:59:59;41.03;;;37.50;;
7881;SDS011;3986;41.884;23.466;2022-11-23T11:02:30;23.33;;;21.42;;
7881;SDS011;3986;41.884;23.466;2022-11-23T11:05:24;21.98;;;20.23;;
7881;SDS011;3986;41.884;23.466;2022-11-23T11:07:55;19.67;;;18.08;;
7881;SDS011;3986;41.884;23.466;2022-11-23T11:10:31;24.13;;;22.17;;
7881;SDS011;3986;41.884;23.466;2022-11-23T11:13:00;24.38;;;22.48;;
7881;SDS011;3986;41.884;23.466;2022-11-23T11:15:27;27.67;;;25.30;;
7881;SDS011;3986;41.884;23.466;2022-11-23T11:17:55;21.00;;;19.27;;
7881;SDS011;3986;41.884;23.466;2022-11-23T11:20:27;17.58;;;16.08;;
7881;SDS011;3986;41.884;23.466;2022-11-23T11:22:58;13.73;;;12.55;;
7881;SDS011;3986;41.884;23.466;2022-11-23T11:25:27;21.15;;;19.30;;
7881;SDS011;3986;41.884;23.466;2022-11-23T11:27:56;22.85;;;21.10;;
7881;SDS011;3986;41.884;23.466;2022-11-23T11:30:24;26.98;;;24.77;;
7881;SDS011;3986;41.884;23.466;2022-11-23T11:32:55;30.70;;;28.30;;
7881;SDS011;3986;41.884;23.466;2022-11-23T11:35:28;25.83;;;23.63;;
7881;SDS011;3986;41.884;23.466;2022-11-23T11:38:01;23.67;;;21.83;;
7881;SDS011;3986;41.884;23.466;2022-11-23T11:40:33;24.00;;;22.08;;
7881;SDS011;3986;41.884;23.466;2022-11-23T11:43:04;23.38;;;21.42;;
7881;SDS011;3986;41.884;23.466;2022-11-23T11:45:37;22.08;;;20.20;;
7881;SDS011;3986;41.884;23.466;2022-11-23T11:48:07;22.70;;;20.75;;
7881;SDS011;3986;41.884;23.466;2022-11-23T11:50:40;32.60;;;29.90;;
7881;SDS011;3986;41.884;23.466;2022-11-23T11:53:13;36.03;;;32.80;;
7881;SDS011;3986;41.884;23.466;2022-11-23T11:55:47;29.10;;;26.57;;
7881;SDS011;3986;41.884;23.466;2022-11-23T11:58:16;37.90;;;34.80;;
7881;SDS011;3986;41.884;23.466;2022-11-23T12:00:45;24.33;;;22.33;;
7881;SDS011;3986;41.884;23.466;2022-11-23T12:03:17;13.10;;;11.90;;
7881;SDS011;3986;41.884;23.466;2022-11-23T12:05:50;14.87;;;13.73;;
7881;SDS011;3986;41.884;23.466;2022-11-23T12:08:22;7.23;;;6.63;;
7881;SDS011;3986;41.884;23.466;2022-11-23T12:10:55;31.83;;;29.13;;
7881;SDS011;3986;41.884;23.466;2022-11-23T12:13:26;24.93;;;22.83;;
7881;SDS011;3986;41.884;23.466;2022-11-23T12:15:58;24.10;;;22.10;;
7881;SDS011;3986;41.884;23.466;2022-11-23T12:18:55;29.27;;;26.87;;
7881;SDS011;3986;41.884;23.466;2022-11-23T12:21:50;18.40;;;16.83;;
7881;SDS011;3986;41.884;23.466;2022-11-23T12:24:37;11.73;;;10.83;;
7881;SDS011;3986;41.884;23.466;2022-11-23T12:27:23;12.33;;;11.23;;
7881;SDS011;3986;41.884;23.466;2022-11-23T12:30:07;13.77;;;12.60;;
7881;SDS011;3986;41.884;23.466;2022-11-23T12:32:48;21.07;;;19.27;;
7881;SDS011;3986;41.884;23.466;2022-11-23T12:35:43;17.20;;;15.70;;
7881;SDS011;3986;41.884;23.466;2022-11-23T12:38:19;12.07;;;11.07;;
7881;SDS011;3986;41.884;23.466;2022-11-23T12:40:56;21.42;;;19.63;;
7881;SDS011;3986;41.884;23.466;2022-11-23T12:43:37;19.87;;;18.20;;
7881;SDS011;3986;41.884;23.466;2022-11-23T12:46:13;28.02;;;25.42;;
7881;SDS011;3986;41.884;23.466;2022-11-23T12:48:54;37.47;;;34.47;;
7881;SDS011;3986;41.884;23.466;2022-11-23T12:51:35;29.73;;;27.37;;
7881;SDS011;3986;41.884;23.466;2022-11-23T12:54:15;41.35;;;37.95;;
7881;SDS011;3986;41.884;23.466;2022-11-23T12:57:13;24.43;;;22.33;;
7881;SDS011;3986;41.884;23.466;2022-11-23T12:59:44;17.50;;;16.00;;
7881;SDS011;3986;41.884;23.466;2022-11-23T13:02:23;23.20;;;20.92;;
7881;SDS011;3986;41.884;23.466;2022-11-23T13:08:26;22.40;;;20.58;;
7881;SDS011;3986;41.884;23.466;2022-11-23T13:11:10;19.08;;;17.45;;
7881;SDS011;3986;41.884;23.466;2022-11-23T13:13:53;32.97;;;30.07;;
7881;SDS011;3986;41.884;23.466;2022-11-23T13:19:42;29.90;;;27.20;;
7881;SDS011;3986;41.884;23.466;2022-11-23T13:22:19;33.38;;;30.13;;
7881;SDS011;3986;41.884;23.466;2022-11-23T13:27:55;20.47;;;18.70;;
7881;SDS011;3986;41.884;23.466;2022-11-23T13:30:26;20.27;;;18.47;;
7881;SDS011;3986;41.884;23.466;2022-11-23T13:32:56;15.17;;;13.83;;
7881;SDS011;3986;41.884;23.466;2022-11-23T13:35:46;18.37;;;16.77;;
7881;SDS011;3986;41.884;23.466;2022-11-23T13:38:25;20.63;;;18.90;;
7881;SDS011;3986;41.884;23.466;2022-11-23T13:40:53;26.33;;;24.00;;
7881;SDS011;3986;41.884;23.466;2022-11-23T13:43:23;12.60;;;11.40;;
7881;SDS011;3986;41.884;23.466;2022-11-23T13:46:17;14.27;;;12.97;;
7881;SDS011;3986;41.884;23.466;2022-11-23T13:48:48;21.93;;;19.83;;
7881;SDS011;3986;41.884;23.466;2022-11-23T13:51:23;17.10;;;15.50;;
7881;SDS011;3986;41.884;23.466;2022-11-23T13:53:53;22.27;;;20.27;;
7881;SDS011;3986;41.884;23.466;2022-11-23T13:56:28;34.53;;;31.33;;
7881;SDS011;3986;41.884;23.466;2022-11-23T13:58:57;37.93;;;34.30;;
7881;SDS011;3986;41.884;23.466;2022-11-23T14:04:48;31.33;;;28.40;;
7881;SDS011;3986;41.884;23.466;2022-11-23T14:07:15;32.93;;;30.03;;
7881;SDS011;3986;41.884;23.466;2022-11-23T14:09:47;41.10;;;37.40;;
7881;SDS011;3986;41.884;23.466;2022-11-23T14:12:20;38.97;;;35.63;;
7881;SDS011;3986;41.884;23.466;2022-11-23T14:14:57;46.10;;;42.10;;
7881;SDS011;3986;41.884;23.466;2022-11-23T14:20:41;29.40;;;26.50;;
7881;SDS011;3986;41.884;23.466;2022-11-23T14:23:17;28.97;;;25.83;;
7881;SDS011;3986;41.884;23.466;2022-11-23T14:25:56;27.13;;;24.70;;
7881;SDS011;3986;41.884;23.466;2022-11-23T14:28:39;30.10;;;27.00;;
7881;SDS011;3986;41.884;23.466;2022-11-23T14:31:16;18.67;;;16.87;;
7881;SDS011;3986;41.884;23.466;2022-11-23T14:33:56;28.90;;;26.20;;
7881;SDS011;3986;41.884;23.466;2022-11-23T14:36:31;28.83;;;25.93;;
7881;SDS011;3986;41.884;23.466;2022-11-23T14:42:34;20.00;;;18.10;;
7881;SDS011;3986;41.884;23.466;2022-11-23T14:45:10;46.80;;;41.97;;
7881;SDS011;3986;41.884;23.466;2022-11-23T14:47:39;43.53;;;39.27;;
7881;SDS011;3986;41.884;23.466;2022-11-23T14:50:18;52.87;;;47.83;;
7881;SDS011;3986;41.884;23.466;2022-11-23T14:52:46;39.83;;;36.13;;
7881;SDS011;3986;41.884;23.466;2022-11-23T14:55:25;35.97;;;32.33;;
7881;SDS011;3986;41.884;23.466;2022-11-23T14:57:54;27.50;;;25.03;;
7881;SDS011;3986;41.884;23.466;2022-11-23T15:00:25;32.67;;;29.57;;
7881;SDS011;3986;41.884;23.466;2022-11-23T15:02:56;39.70;;;35.97;;
7881;SDS011;3986;41.884;23.466;2022-11-23T15:05:28;44.67;;;40.17;;
7881;SDS011;3986;41.884;23.466;2022-11-23T15:07:59;47.07;;;42.50;;
7881;SDS011;3986;41.884;23.466;2022-11-23T15:10:42;49.67;;;44.87;;
7881;SDS011;3986;41.884;23.466;2022-11-23T15:13:16;72.33;;;65.37;;
7881;SDS011;3986;41.884;23.466;2022-11-23T15:15:48;53.47;;;48.33;;
7881;SDS011;3986;41.884;23.466;2022-11-23T15:18:30;44.23;;;39.80;;
7881;SDS011;3986;41.884;23.466;2022-11-23T15:21:00;42.53;;;38.20;;
7881;SDS011;3986;41.884;23.466;2022-11-23T15:23:32;55.03;;;49.00;;
7881;SDS011;3986;41.884;23.466;2022-11-23T15:26:02;45.97;;;41.33;;
7881;SDS011;3986;41.884;23.466;2022-11-23T15:28:32;49.30;;;44.33;;
7881;SDS011;3986;41.884;23.466;2022-11-23T15:31:15;50.53;;;45.50;;
7881;SDS011;3986;41.884;23.466;2022-11-23T15:33:44;57.70;;;51.97;;
7881;SDS011;3986;41.884;23.466;2022-11-23T15:36:25;59.30;;;53.40;;
7881;SDS011;3986;41.884;23.466;2022-11-23T15:38:54;80.97;;;72.80;;
7881;SDS011;3986;41.884;23.466;2022-11-23T15:41:22;95.13;;;85.33;;
7881;SDS011;3986;41.884;23.466;2022-11-23T15:43:51;158.40;;;134.23;;
7881;SDS011;3986;41.884;23.466;2022-11-23T15:46:18;95.97;;;86.03;;
7881;SDS011;3986;41.884;23.466;2022-11-23T15:48:49;124.60;;;112.00;;
7881;SDS011;3986;41.884;23.466;2022-11-23T15:51:21;114.30;;;102.87;;
7881;SDS011;3986;41.884;23.466;2022-11-23T15:53:51;85.23;;;76.63;;
7881;SDS011;3986;41.884;23.466;2022-11-23T15:56:20;125.70;;;111.97;;
7881;SDS011;3986;41.884;23.466;2022-11-23T15:58:49;104.87;;;94.33;;
7881;SDS011;3986;41.884;23.466;2022-11-23T16:01:17;70.93;;;63.50;;
7881;SDS011;3986;41.884;23.466;2022-11-23T16:03:48;76.17;;;68.20;;
7881;SDS011;3986;41.884;23.466;2022-11-23T16:06:17;85.67;;;77.13;;
7881;SDS011;3986;41.884;23.466;2022-11-23T16:08:49;189.60;;;168.67;;
7881;SDS011;3986;41.884;23.466;2022-11-23T16:11:17;179.77;;;160.37;;
7881;SDS011;3986;41.884;23.466;2022-11-23T16:13:47;111.17;;;100.17;;
7881;SDS011;3986;41.884;23.466;2022-11-23T16:16:14;117.73;;;105.93;;
7881;SDS011;3986;41.884;23.466;2022-11-23T16:18:43;115.17;;;104.07;;
7881;SDS011;3986;41.884;23.466;2022-11-23T16:21:12;104.83;;;94.23;;
7881;SDS011;3986;41.884;23.466;2022-11-23T16:23:44;106.00;;;95.57;;
7881;SDS011;3986;41.884;23.466;2022-11-23T16:26:13;125.23;;;112.87;;
7881;SDS011;3986;41.884;23.466;2022-11-23T16:28:47;137.40;;;124.27;;
7881;SDS011;3986;41.884;23.466;2022-11-23T16:31:27;102.27;;;92.10;;
7881;SDS011;3986;41.884;23.466;2022-11-23T16:33:55;94.70;;;85.20;;
7881;SDS011;3986;41.884;23.466;2022-11-23T16:36:25;97.13;;;87.27;;
7881;SDS011;3986;41.884;23.466;2022-11-23T16:38:54;93.33;;;83.60;;
7881;SDS011;3986;41.884;23.466;2022-11-23T16:41:21;95.43;;;85.53;;
7881;SDS011;3986;41.884;23.466;2022-11-23T16:43:48;92.50;;;82.33;;
7881;SDS011;3986;41.884;23.466;2022-11-23T16:46:18;103.30;;;92.17;;
7881;SDS011;3986;41.884;23.466;2022-11-23T16:48:44;159.43;;;143.00;;
7881;SDS011;3986;41.884;23.466;2022-11-23T16:51:11;145.13;;;129.90;;
7881;SDS011;3986;41.884;23.466;2022-11-23T16:53:40;144.47;;;128.33;;
7881;SDS011;3986;41.884;23.466;2022-11-23T16:56:09;134.80;;;121.00;;
7881;SDS011;3986;41.884;23.466;2022-11-23T16:58:41;151.70;;;136.10;;
7881;SDS011;3986;41.884;23.466;2022-11-23T17:01:09;148.77;;;133.37;;
7881;SDS011;3986;41.884;23.466;2022-11-23T17:03:41;135.17;;;121.20;;
7881;SDS011;3986;41.884;23.466;2022-11-23T17:06:09;150.80;;;135.30;;
7881;SDS011;3986;41.884;23.466;2022-11-23T17:08:37;129.53;;;116.53;;
7881;SDS011;3986;41.884;23.466;2022-11-23T17:11:04;107.77;;;96.87;;
7881;SDS011;3986;41.884;23.466;2022-11-23T17:13:37;95.57;;;86.40;;
7881;SDS011;3986;41.884;23.466;2022-11-23T17:16:04;86.17;;;77.10;;
7881;SDS011;3986;41.884;23.466;2022-11-23T17:18:33;127.80;;;114.23;;
7881;SDS011;3986;41.884;23.466;2022-11-23T17:21:00;145.87;;;130.87;;
7881;SDS011;3986;41.884;23.466;2022-11-23T17:23:27;175.27;;;157.10;;
7881;SDS011;3986;41.884;23.466;2022-11-23T17:25:54;146.63;;;131.30;;
7881;SDS011;3986;41.884;23.466;2022-11-23T17:28:22;153.67;;;137.80;;
7881;SDS011;3986;41.884;23.466;2022-11-23T17:30:49;253.80;;;228.83;;
7881;SDS011;3986;41.884;23.466;2022-11-23T17:33:16;172.60;;;154.63;;
7881;SDS011;3986;41.884;23.466;2022-11-23T17:35:43;164.77;;;147.73;;
7881;SDS011;3986;41.884;23.466;2022-11-23T17:38:11;143.33;;;128.63;;
7881;SDS011;3986;41.884;23.466;2022-11-23T17:40:39;124.63;;;112.23;;
7881;SDS011;3986;41.884;23.466;2022-11-23T17:43:07;136.57;;;123.23;;
7881;SDS011;3986;41.884;23.466;2022-11-23T17:45:39;121.00;;;108.90;;
7881;SDS011;3986;41.884;23.466;2022-11-23T17:48:08;156.53;;;140.23;;
7881;SDS011;3986;41.884;23.466;2022-11-23T17:50:36;137.90;;;124.00;;
7881;SDS011;3986;41.884;23.466;2022-11-23T17:53:03;155.90;;;140.67;;
7881;SDS011;3986;41.884;23.466;2022-11-23T17:55:30;151.17;;;135.80;;
7881;SDS011;3986;41.884;23.466;2022-11-23T17:57:57;134.37;;;120.70;;
7881;SDS011;3986;41.884;23.466;2022-11-23T18:00:24;159.33;;;142.87;;
7881;SDS011;3986;41.884;23.466;2022-11-23T18:02:54;218.13;;;196.73;;
7881;SDS011;3986;41.884;23.466;2022-11-23T18:05:21;173.87;;;156.87;;
7881;SDS011;3986;41.884;23.466;2022-11-23T18:07:48;164.27;;;147.93;;
7881;SDS011;3986;41.884;23.466;2022-11-23T18:10:15;198.93;;;176.97;;
7881;SDS011;3986;41.884;23.466;2022-11-23T18:12:42;148.37;;;132.17;;
7881;SDS011;3986;41.884;23.466;2022-11-23T18:15:09;82.63;;;73.83;;
7881;SDS011;3986;41.884;23.466;2022-11-23T18:17:36;81.93;;;73.43;;
7881;SDS011;3986;41.884;23.466;2022-11-23T18:20:05;95.33;;;85.40;;
7881;SDS011;3986;41.884;23.466;2022-11-23T18:22:34;72.70;;;64.97;;
7881;SDS011;3986;41.884;23.466;2022-11-23T18:25:01;78.20;;;69.67;;
7881;SDS011;3986;41.884;23.466;2022-11-23T18:27:28;84.93;;;75.57;;
7881;SDS011;3986;41.884;23.466;2022-11-23T18:29:55;71.03;;;63.77;;
7881;SDS011;3986;41.884;23.466;2022-11-23T18:32:21;59.43;;;53.27;;
7881;SDS011;3986;41.884;23.466;2022-11-23T18:34:48;98.27;;;88.67;;
7881;SDS011;3986;41.884;23.466;2022-11-23T18:37:16;117.30;;;105.47;;
7881;SDS011;3986;41.884;23.466;2022-11-23T18:39:43;111.50;;;99.83;;
7881;SDS011;3986;41.884;23.466;2022-11-23T18:42:10;128.13;;;115.60;;
7881;SDS011;3986;41.884;23.466;2022-11-23T18:44:38;148.90;;;133.47;;
7881;SDS011;3986;41.884;23.466;2022-11-23T18:47:05;154.23;;;138.20;;
7881;SDS011;3986;41.884;23.466;2022-11-23T18:49:31;142.00;;;127.50;;
7881;SDS011;3986;41.884;23.466;2022-11-23T18:51:58;116.60;;;104.57;;
7881;SDS011;3986;41.884;23.466;2022-11-23T18:54:26;114.97;;;103.20;;
7881;SDS011;3986;41.884;23.466;2022-11-23T18:56:53;115.40;;;103.63;;
7881;SDS011;3986;41.884;23.466;2022-11-23T18:59:20;109.73;;;98.60;;
7881;SDS011;3986;41.884;23.466;2022-11-23T19:01:46;86.67;;;78.13;;
7881;SDS011;3986;41.884;23.466;2022-11-23T19:04:13;83.10;;;75.13;;
7881;SDS011;3986;41.884;23.466;2022-11-23T19:06:40;75.40;;;67.90;;
7881;SDS011;3986;41.884;23.466;2022-11-23T19:09:07;65.83;;;59.03;;
7881;SDS011;3986;41.884;23.466;2022-11-23T19:11:39;54.63;;;49.23;;
7881;SDS011;3986;41.884;23.466;2022-11-23T19:14:07;45.30;;;40.70;;
7881;SDS011;3986;41.884;23.466;2022-11-23T19:16:34;46.43;;;41.83;;
7881;SDS011;3986;41.884;23.466;2022-11-23T19:19:01;45.03;;;40.60;;
7881;SDS011;3986;41.884;23.466;2022-11-23T19:21:30;47.60;;;42.77;;
7881;SDS011;3986;41.884;23.466;2022-11-23T19:23:58;47.83;;;43.13;;
7881;SDS011;3986;41.884;23.466;2022-11-23T19:26:26;48.83;;;44.00;;
7881;SDS011;3986;41.884;23.466;2022-11-23T19:28:55;41.43;;;37.13;;
7881;SDS011;3986;41.884;23.466;2022-11-23T19:31:22;39.90;;;35.90;;
7881;SDS011;3986;41.884;23.466;2022-11-23T19:33:51;39.27;;;35.23;;
7881;SDS011;3986;41.884;23.466;2022-11-23T19:36:19;35.87;;;32.30;;
7881;SDS011;3986;41.884;23.466;2022-11-23T19:38:48;36.80;;;33.00;;
7881;SDS011;3986;41.884;23.466;2022-11-23T19:41:16;39.03;;;35.07;;
7881;SDS011;3986;41.884;23.466;2022-11-23T19:43:44;45.77;;;40.93;;
7881;SDS011;3986;41.884;23.466;2022-11-23T19:46:13;41.17;;;36.80;;
7881;SDS011;3986;41.884;23.466;2022-11-23T19:48:40;41.93;;;37.83;;
7881;SDS011;3986;41.884;23.466;2022-11-23T19:51:08;41.17;;;36.97;;
7881;SDS011;3986;41.884;23.466;2022-11-23T19:53:37;48.70;;;43.50;;
7881;SDS011;3986;41.884;23.466;2022-11-23T19:56:05;58.43;;;52.50;;
7881;SDS011;3986;41.884;23.466;2022-11-23T19:58:33;66.00;;;59.33;;
7881;SDS011;3986;41.884;23.466;2022-11-23T20:01:00;58.17;;;52.07;;
7881;SDS011;3986;41.884;23.466;2022-11-23T20:03:29;42.57;;;38.20;;
7881;SDS011;3986;41.884;23.466;2022-11-23T20:05:59;42.53;;;38.07;;
7881;SDS011;3986;41.884;23.466;2022-11-23T20:08:27;27.87;;;25.07;;
7881;SDS011;3986;41.884;23.466;2022-11-23T20:10:54;22.60;;;20.30;;
7881;SDS011;3986;41.884;23.466;2022-11-23T20:13:22;30.60;;;27.43;;
7881;SDS011;3986;41.884;23.466;2022-11-23T20:15:49;33.37;;;30.00;;
7881;SDS011;3986;41.884;23.466;2022-11-23T20:18:15;27.50;;;24.70;;
7881;SDS011;3986;41.884;23.466;2022-11-23T20:20:45;30.13;;;25.73;;
7881;SDS011;3986;41.884;23.466;2022-11-23T20:23:12;37.70;;;33.70;;
7881;SDS011;3986;41.884;23.466;2022-11-23T20:25:39;43.07;;;38.23;;
7881;SDS011;3986;41.884;23.466;2022-11-23T20:28:08;41.83;;;37.70;;
7881;SDS011;3986;41.884;23.466;2022-11-23T20:30:37;50.63;;;44.57;;
7881;SDS011;3986;41.884;23.466;2022-11-23T20:33:04;97.27;;;74.47;;
7881;SDS011;3986;41.884;23.466;2022-11-23T20:35:31;92.57;;;71.37;;
7881;SDS011;3986;41.884;23.466;2022-11-23T20:37:59;74.27;;;61.93;;
7881;SDS011;3986;41.884;23.466;2022-11-23T20:40:26;75.43;;;60.83;;
7881;SDS011;3986;41.884;23.466;2022-11-23T20:42:53;80.30;;;70.03;;
7881;SDS011;3986;41.884;23.466;2022-11-23T20:45:21;70.13;;;62.10;;
7881;SDS011;3986;41.884;23.466;2022-11-23T20:47:48;70.07;;;62.57;;
7881;SDS011;3986;41.884;23.466;2022-11-23T20:50:18;70.37;;;62.77;;
7881;SDS011;3986;41.884;23.466;2022-11-23T20:52:49;86.50;;;77.57;;
7881;SDS011;3986;41.884;23.466;2022-11-23T20:55:18;84.63;;;75.57;;
7881;SDS011;3986;41.884;23.466;2022-11-23T20:57:48;82.20;;;73.17;;
7881;SDS011;3986;41.884;23.466;2022-11-23T21:00:15;90.30;;;81.00;;
7881;SDS011;3986;41.884;23.466;2022-11-23T21:02:44;94.90;;;85.20;;
7881;SDS011;3986;41.884;23.466;2022-11-23T21:05:13;100.00;;;89.93;;
7881;SDS011;3986;41.884;23.466;2022-11-23T21:07:41;95.50;;;85.57;;
7881;SDS011;3986;41.884;23.466;2022-11-23T21:10:08;94.73;;;84.90;;
7881;SDS011;3986;41.884;23.466;2022-11-23T21:12:56;93.60;;;84.37;;
7881;SDS011;3986;41.884;23.466;2022-11-23T21:15:41;114.27;;;102.70;;
7881;SDS011;3986;41.884;23.466;2022-11-23T21:18:08;105.90;;;93.23;;
7881;SDS011;3986;41.884;23.466;2022-11-23T21:20:36;98.80;;;88.67;;
7881;SDS011;3986;41.884;23.466;2022-11-23T21:23:03;104.47;;;93.77;;
7881;SDS011;3986;41.884;23.466;2022-11-23T21:25:29;108.27;;;97.27;;
7881;SDS011;3986;41.884;23.466;2022-11-23T21:27:58;97.63;;;87.37;;
7881;SDS011;3986;41.884;23.466;2022-11-23T21:30:27;95.13;;;84.67;;
7881;SDS011;3986;41.884;23.466;2022-11-23T21:32:54;88.77;;;79.10;;
7881;SDS011;3986;41.884;23.466;2022-11-23T21:35:21;88.40;;;78.93;;
7881;SDS011;3986;41.884;23.466;2022-11-23T21:37:48;87.80;;;78.70;;
7881;SDS011;3986;41.884;23.466;2022-11-23T21:40:14;94.13;;;84.13;;
7881;SDS011;3986;41.884;23.466;2022-11-23T21:42:41;99.30;;;88.83;;
7881;SDS011;3986;41.884;23.466;2022-11-23T21:45:10;109.70;;;98.70;;
7881;SDS011;3986;41.884;23.466;2022-11-23T21:47:38;101.37;;;91.10;;
7881;SDS011;3986;41.884;23.466;2022-11-23T21:50:05;96.83;;;86.73;;
7881;SDS011;3986;41.884;23.466;2022-11-23T21:52:32;99.13;;;89.00;;
7881;SDS011;3986;41.884;23.466;2022-11-23T21:54:59;96.83;;;86.83;;
7881;SDS011;3986;41.884;23.466;2022-11-23T21:57:26;104.67;;;94.13;;
7881;SDS011;3986;41.884;23.466;2022-11-23T21:59:53;94.53;;;84.53;;
7881;SDS011;3986;41.884;23.466;2022-11-23T22:02:21;94.17;;;84.33;;
7881;SDS011;3986;41.884;23.466;2022-11-23T22:04:48;93.87;;;83.80;;
7881;SDS011;3986;41.884;23.466;2022-11-23T22:07:15;92.23;;;82.37;;
7881;SDS011;3986;41.884;23.466;2022-11-23T22:09:42;82.53;;;73.87;;
7881;SDS011;3986;41.884;23.466;2022-11-23T22:12:09;76.77;;;68.30;;
7881;SDS011;3986;41.884;23.466;2022-11-23T22:14:35;78.90;;;70.70;;
7881;SDS011;3986;41.884;23.466;2022-11-23T22:17:03;77.57;;;69.57;;
7881;SDS011;3986;41.884;23.466;2022-11-23T22:19:31;70.27;;;63.20;;
7881;SDS011;3986;41.884;23.466;2022-11-23T22:21:58;40.43;;;36.10;;
7881;SDS011;3986;41.884;23.466;2022-11-23T22:24:24;36.57;;;32.27;;
7881;SDS011;3986;41.884;23.466;2022-11-23T22:26:51;35.53;;;31.87;;
7881;SDS011;3986;41.884;23.466;2022-11-23T22:29:18;37.57;;;32.57;;
7881;SDS011;3986;41.884;23.466;2022-11-23T22:31:46;49.13;;;44.13;;
7881;SDS011;3986;41.884;23.466;2022-11-23T22:34:12;49.20;;;44.17;;
7881;SDS011;3986;41.884;23.466;2022-11-23T22:36:41;49.23;;;44.00;;
7881;SDS011;3986;41.884;23.466;2022-11-23T22:39:08;38.20;;;33.87;;
7881;SDS011;3986;41.884;23.466;2022-11-23T22:41:35;34.27;;;30.63;;
7881;SDS011;3986;41.884;23.466;2022-11-23T22:44:03;31.83;;;28.23;;